Terminal Aerodrome Forecast
Issued by NWS

Home | Current Version | Previous Version | Text Only | Print | Product List | Glossary On
Versions: 1 2 3 4 5 6 7 8 9 10 11 12 13 14 15 16 17 18 19 20 21 22 23 24 25
000
FTUS46 KPQR 301120
TAFONP
TAF
KONP 301120Z 3012/3112 09010KT P6SM -RA OVC050
     FM301400 12010KT 6SM -RA SCT012 OVC050
     FM301600 16009G18KT 4SM RA BR OVC007
     FM301900 17010G20KT 5SM -RA BR OVC050
     FM310000 19011KT 2SM -RA BR SCT007 OVC050=

USA.gov is the U.S. government's official web portal to all federal, state and local government web resources and services.